createdAt,value
2022-11-05T00:01:45.290Z,100.00
2022-11-05T00:11:18.367Z,100.00
2022-11-05T00:20:51.264Z,100.00
2022-11-05T00:30:26.820Z,100.00
2022-11-05T00:40:00.688Z,100.00
2022-11-05T00:49:34.576Z,100.00
2022-11-05T00:59:07.786Z,100.00
2022-11-05T01:08:40.011Z,100.00
2022-11-05T01:18:14.170Z,100.00
2022-11-05T01:27:50.092Z,100.00
2022-11-05T01:37:22.629Z,100.00
2022-11-05T01:46:56.892Z,100.00
2022-11-05T01:56:30.665Z,100.00
2022-11-05T02:06:04.973Z,100.00
2022-11-05T02:15:40.845Z,100.00
2022-11-05T02:25:15.032Z,100.00
2022-11-05T02:34:46.557Z,100.00
2022-11-05T02:44:25.614Z,100.00
2022-11-05T02:53:56.914Z,100.00
2022-11-05T03:03:31.575Z,99.71
2022-11-05T03:13:02.807Z,98.41
2022-11-05T03:22:36.675Z,96.96
2022-11-05T03:32:12.203Z,97.80
2022-11-05T03:41:44.461Z,97.94
2022-11-05T03:51:20.088Z,98.30
2022-11-05T04:00:53.854Z,97.37
2022-11-05T04:10:27.425Z,98.79
2022-11-05T04:19:59.867Z,100.00
2022-11-05T04:29:35.213Z,100.00
2022-11-05T04:39:07.646Z,100.00
2022-11-05T04:48:42.765Z,100.00
2022-11-05T04:58:16.731Z,100.00
2022-11-05T05:07:50.533Z,100.00
2022-11-05T05:17:22.439Z,100.00
2022-11-05T05:26:56.571Z,100.00
2022-11-05T05:36:32.217Z,100.00
2022-11-05T05:46:04.531Z,100.00
2022-11-05T05:55:38.878Z,100.00
2022-11-05T06:05:14.520Z,100.00
2022-11-05T06:14:46.583Z,100.00
2022-11-05T06:24:20.767Z,100.00
2022-11-05T06:33:56.497Z,100.00
2022-11-05T06:43:29.167Z,100.00
2022-11-05T06:53:03.074Z,100.00
2022-11-05T07:02:37.513Z,100.00
2022-11-05T07:12:13.487Z,100.00
2022-11-05T07:21:45.831Z,100.00
2022-11-05T07:31:19.979Z,100.00
2022-11-05T07:40:53.857Z,100.00
2022-11-05T07:50:29.971Z,100.00
2022-11-05T08:00:02.200Z,100.00
2022-11-05T08:09:36.429Z,100.00
2022-11-05T08:19:10.397Z,100.00
2022-11-05T08:28:46.392Z,100.00
2022-11-05T08:38:20.369Z,100.00
2022-11-05T08:47:53.064Z,100.00
2022-11-05T08:57:27.346Z,100.00
2022-11-05T09:07:02.058Z,99.29
2022-11-05T09:16:36.535Z,98.92
2022-11-05T09:26:11.014Z,97.01
2022-11-05T09:35:45.372Z,97.84
2022-11-05T09:45:19.542Z,96.30
2022-11-05T09:54:55.829Z,95.25
2022-11-05T10:04:28.767Z,92.29
2022-11-05T10:05:32.959Z,92.60
2022-11-05T10:06:35.206Z,92.92
2022-11-05T10:16:08.335Z,90.47
2022-11-05T10:17:10.806Z,90.30
2022-11-05T10:18:15.005Z,90.04
2022-11-05T10:19:17.293Z,88.24
2022-11-05T10:20:19.755Z,87.92
2022-11-05T10:21:38.020Z,88.43
2022-11-05T10:22:26.141Z,88.54
2022-11-05T10:23:28.736Z,88.29
2022-11-05T10:24:31.212Z,87.42
2022-11-05T10:25:34.696Z,88.51
2022-11-05T10:26:38.633Z,89.00
2022-11-05T10:27:41.940Z,88.56
2022-11-05T10:28:44.338Z,88.00
2022-11-05T10:29:46.735Z,88.68
2022-11-05T10:30:50.253Z,87.58
2022-11-05T10:31:54.222Z,87.98
2022-11-05T10:32:56.486Z,87.81
2022-11-05T10:33:58.970Z,87.64
2022-11-05T10:35:01.441Z,87.47
2022-11-05T10:44:33.952Z,86.58
2022-11-05T10:45:38.071Z,86.12
2022-11-05T10:46:42.033Z,85.34
2022-11-05T10:47:46.032Z,85.97
2022-11-05T10:48:48.434Z,84.59
2022-11-05T10:49:50.811Z,84.98
2022-11-05T10:50:53.299Z,85.14
2022-11-05T11:00:25.708Z,83.44
2022-11-05T11:01:28.369Z,83.33
2022-11-05T11:02:30.742Z,84.32
2022-11-05T11:03:34.823Z,82.81
2022-11-05T11:04:38.172Z,82.71
2022-11-05T11:05:39.679Z,83.28
2022-11-05T11:06:42.166Z,84.18
2022-11-05T11:07:46.197Z,85.27
2022-11-05T11:08:49.545Z,84.11
2022-11-05T11:09:53.538Z,83.61
2022-11-05T11:10:57.490Z,82.92
2022-11-05T11:11:59.793Z,82.86
2022-11-05T11:13:02.248Z,82.50
2022-11-05T11:14:06.299Z,82.30
2022-11-05T11:15:10.249Z,82.21
2022-11-05T11:16:14.154Z,83.72
2022-11-05T11:17:17.479Z,83.89
2022-11-05T11:18:19.883Z,83.86
2022-11-05T11:19:22.302Z,81.75
2022-11-05T11:20:24.681Z,82.17
2022-11-05T11:21:27.155Z,82.22
2022-11-05T11:22:31.195Z,82.18
2022-11-05T11:23:33.520Z,83.13
2022-11-05T11:24:37.039Z,82.77
2022-11-05T11:25:39.313Z,83.07
2022-11-05T11:26:41.865Z,83.53
2022-11-05T11:27:44.248Z,84.28
2022-11-05T11:28:46.702Z,84.39
2022-11-05T11:29:49.767Z,84.29
2022-11-05T11:30:53.340Z,82.35
2022-11-05T11:31:57.208Z,81.96
2022-11-05T11:41:28.559Z,83.50
2022-11-05T11:42:31.012Z,82.93
2022-11-05T11:43:34.540Z,83.25
2022-11-05T11:44:38.494Z,82.77
2022-11-05T11:45:42.437Z,81.65
2022-11-05T11:46:44.777Z,81.73
2022-11-05T11:47:47.247Z,82.17
2022-11-05T11:48:51.294Z,81.39
2022-11-05T11:49:53.706Z,81.51
2022-11-05T11:50:56.123Z,78.92
2022-11-05T11:52:00.223Z,80.10
2022-11-05T11:53:04.238Z,78.79
2022-11-05T11:54:08.201Z,78.16
2022-11-05T11:55:12.125Z,78.84
2022-11-05T11:56:16.059Z,78.69
2022-11-05T11:57:18.331Z,78.41
2022-11-05T11:58:20.795Z,79.92
2022-11-05T11:59:35.336Z,80.34
2022-11-05T12:00:25.659Z,78.90
2022-11-05T12:01:28.217Z,77.66
2022-11-05T12:02:32.263Z,77.92
2022-11-05T12:03:34.571Z,76.91
2022-11-05T12:04:36.996Z,76.92
2022-11-05T12:05:40.486Z,77.68
2022-11-05T12:06:42.865Z,78.56
2022-11-05T12:07:45.301Z,77.93
2022-11-05T12:08:54.280Z,77.34
2022-11-05T12:09:53.309Z,77.54
2022-11-05T12:10:55.601Z,75.90
2022-11-05T12:11:59.664Z,75.92
2022-11-05T12:13:02.009Z,74.58
2022-11-05T12:14:04.476Z,74.76
2022-11-05T12:15:06.905Z,75.22
2022-11-05T12:16:09.396Z,76.19
2022-11-05T12:17:11.793Z,75.57
2022-11-05T12:18:14.272Z,75.30
2022-11-05T12:19:18.376Z,75.63
2022-11-05T12:20:22.339Z,77.14
2022-11-05T12:21:47.976Z,78.58
2022-11-05T12:22:30.235Z,75.11
2022-11-05T12:23:34.176Z,74.04
2022-11-05T12:24:36.578Z,73.60
2022-11-05T12:25:38.998Z,73.70
2022-11-05T12:26:41.469Z,73.96
2022-11-05T12:27:43.933Z,74.25
2022-11-05T12:29:12.570Z,74.54
2022-11-05T12:29:52.038Z,74.20
2022-11-05T12:30:54.342Z,74.29
2022-11-05T12:31:56.821Z,74.52
2022-11-05T12:33:01.030Z,73.23
2022-11-05T12:34:03.300Z,73.79
2022-11-05T12:35:05.744Z,73.05
2022-11-05T12:36:08.137Z,73.13
2022-11-05T12:37:10.680Z,74.46
2022-11-05T12:38:13.100Z,75.98
2022-11-05T12:39:15.640Z,75.55
2022-11-05T12:40:18.132Z,73.12
2022-11-05T12:41:22.157Z,73.65
2022-11-05T12:42:26.083Z,72.92
2022-11-05T12:43:30.054Z,73.45
2022-11-05T12:44:32.445Z,74.09
2022-11-05T12:45:34.831Z,71.68
2022-11-05T12:46:38.903Z,72.67
2022-11-05T12:47:41.218Z,73.49
2022-11-05T12:48:43.686Z,74.57
2022-11-05T12:49:46.198Z,75.87
2022-11-05T12:50:48.651Z,75.24
2022-11-05T12:51:52.767Z,75.62
2022-11-05T12:52:56.041Z,73.83
2022-11-05T12:53:58.461Z,72.14
2022-11-05T12:55:00.865Z,72.25
2022-11-05T12:56:03.332Z,71.21
2022-11-05T12:57:05.840Z,70.73
2022-11-05T12:58:09.297Z,69.43
2022-11-05T12:59:11.691Z,70.03
2022-11-05T13:00:14.151Z,70.27
2022-11-05T13:01:16.723Z,70.63
2022-11-05T13:02:19.138Z,70.21
2022-11-05T13:03:21.526Z,71.84
2022-11-05T13:04:23.958Z,70.67
2022-11-05T13:05:26.442Z,71.16
2022-11-05T13:06:28.938Z,70.73
2022-11-05T13:07:31.376Z,71.50
2022-11-05T13:08:34.917Z,72.51
2022-11-05T13:09:43.253Z,71.67
2022-11-05T13:10:45.296Z,72.15
2022-11-05T13:11:48.793Z,71.82
2022-11-05T13:12:51.187Z,72.60
2022-11-05T13:13:53.641Z,71.47
2022-11-05T13:14:57.703Z,71.40
2022-11-05T13:16:00.108Z,73.67
2022-11-05T13:17:02.565Z,72.82
2022-11-05T13:18:05.072Z,72.83
2022-11-05T13:19:09.138Z,73.10
2022-11-05T13:20:16.095Z,73.32
2022-11-05T13:21:14.042Z,71.96
2022-11-05T13:22:18.123Z,72.18
2022-11-05T13:23:20.488Z,73.86
2022-11-05T13:24:22.985Z,75.14
2022-11-05T13:25:26.981Z,74.78
2022-11-05T13:26:29.370Z,75.15
2022-11-05T13:27:31.839Z,73.94
2022-11-05T13:28:34.328Z,73.77
2022-11-05T13:29:38.375Z,73.85
2022-11-05T13:30:40.748Z,74.13
2022-11-05T13:31:43.271Z,73.10
2022-11-05T13:32:45.719Z,74.03
2022-11-05T13:33:48.094Z,77.33
2022-11-05T13:34:53.275Z,78.98
2022-11-05T13:35:57.267Z,80.52
2022-11-05T13:36:59.592Z,80.89
2022-11-05T13:38:02.105Z,81.06
2022-11-05T13:39:04.562Z,82.86
2022-11-05T13:40:07.020Z,83.80
2022-11-05T13:41:13.108Z,83.75
2022-11-05T13:42:16.974Z,83.40
2022-11-05T13:43:20.955Z,83.46
2022-11-05T13:44:23.247Z,83.34
2022-11-05T13:45:25.740Z,83.03
2022-11-05T13:46:29.892Z,84.72
2022-11-05T13:47:32.303Z,84.96
2022-11-05T13:48:34.785Z,85.57
2022-11-05T13:49:37.160Z,85.64
2022-11-05T13:50:39.676Z,84.56
2022-11-05T13:51:43.678Z,84.77
2022-11-05T13:52:45.977Z,84.78
2022-11-05T13:53:48.472Z,85.30
2022-11-05T13:54:50.970Z,85.40
2022-11-05T13:55:53.412Z,85.15
2022-11-05T13:56:57.526Z,85.12
2022-11-05T13:57:59.814Z,83.84
2022-11-05T13:59:02.201Z,83.86
2022-11-05T14:00:04.633Z,83.12
2022-11-05T14:01:07.066Z,81.88
2022-11-05T14:02:11.272Z,82.31
2022-11-05T14:03:13.771Z,82.96
2022-11-05T14:04:17.524Z,82.72
2022-11-05T14:05:22.404Z,82.53
2022-11-05T14:06:24.712Z,84.23
2022-11-05T14:07:27.099Z,85.21
2022-11-05T14:08:29.529Z,85.63
2022-11-05T14:09:31.987Z,86.00
2022-11-05T14:10:34.438Z,85.51
2022-11-05T14:11:36.889Z,85.72
2022-11-05T14:12:39.461Z,85.05
2022-11-05T14:13:41.919Z,84.75
2022-11-05T14:14:44.294Z,85.32
2022-11-05T14:15:48.372Z,85.63
2022-11-05T14:16:52.410Z,84.96
2022-11-05T14:17:54.744Z,85.06
2022-11-05T14:18:58.236Z,85.28
2022-11-05T14:20:02.233Z,85.93
2022-11-05T14:21:04.597Z,86.13
2022-11-05T14:22:06.998Z,86.37
2022-11-05T14:23:09.961Z,86.26
2022-11-05T14:24:11.893Z,85.07
2022-11-05T14:25:14.278Z,83.58
2022-11-05T14:26:16.820Z,82.58
2022-11-05T14:27:20.224Z,81.49
2022-11-05T14:28:22.604Z,82.02
2022-11-05T14:29:26.689Z,80.95
2022-11-05T14:30:29.002Z,80.72
2022-11-05T14:31:47.724Z,81.57
2022-11-05T14:32:33.970Z,80.09
2022-11-05T14:33:36.504Z,80.64
2022-11-05T14:34:40.532Z,79.50
2022-11-05T14:35:42.896Z,79.85
2022-11-05T14:36:46.937Z,79.30
2022-11-05T14:37:49.330Z,79.11
2022-11-05T14:38:51.753Z,78.05
2022-11-05T14:39:54.200Z,78.68
2022-11-05T14:40:56.616Z,78.42
2022-11-05T14:42:00.656Z,78.76
2022-11-05T14:43:03.055Z,78.76
2022-11-05T14:44:05.492Z,78.26
2022-11-05T14:45:07.843Z,78.33
2022-11-05T14:46:10.301Z,78.47
2022-11-05T14:47:12.738Z,77.71
2022-11-05T14:48:15.124Z,78.00
2022-11-05T14:49:17.700Z,77.93
2022-11-05T14:50:21.215Z,78.69
2022-11-05T14:51:23.583Z,77.78
2022-11-05T14:52:26.126Z,78.01
2022-11-05T14:53:31.104Z,78.33
2022-11-05T14:54:33.419Z,78.84
2022-11-05T14:55:37.483Z,78.76
2022-11-05T14:56:39.798Z,79.36
2022-11-05T14:57:42.355Z,79.55
2022-11-05T14:58:44.821Z,79.72
2022-11-05T14:59:47.270Z,80.32
2022-11-05T15:00:49.715Z,80.24
2022-11-05T15:01:53.885Z,80.66
2022-11-05T15:02:56.210Z,80.57
2022-11-05T15:04:00.342Z,80.69
2022-11-05T15:05:02.529Z,81.09
2022-11-05T15:06:06.595Z,81.43
2022-11-05T15:07:09.053Z,82.11
2022-11-05T15:08:11.448Z,81.96
2022-11-05T15:09:13.883Z,82.41
2022-11-05T15:10:16.357Z,82.71
2022-11-05T15:11:18.812Z,82.83
2022-11-05T15:12:21.273Z,82.55
2022-11-05T15:13:25.263Z,82.38
2022-11-05T15:14:27.563Z,82.41
2022-11-05T15:15:31.651Z,82.53
2022-11-05T15:16:35.584Z,82.60
2022-11-05T15:17:37.855Z,82.94
2022-11-05T15:18:40.318Z,81.93
2022-11-05T15:19:44.368Z,81.83
2022-11-05T15:20:46.760Z,81.63
2022-11-05T15:21:50.786Z,81.88
2022-11-05T15:22:53.138Z,81.40
2022-11-05T15:23:55.521Z,81.57
2022-11-05T15:24:57.993Z,81.93
2022-11-05T15:26:00.503Z,81.44
2022-11-05T15:27:04.521Z,81.75
2022-11-05T15:28:08.432Z,81.70
2022-11-05T15:29:10.705Z,81.97
2022-11-05T15:30:13.199Z,82.57
2022-11-05T15:31:15.728Z,82.46
2022-11-05T15:32:18.185Z,81.65
2022-11-05T15:33:20.618Z,81.72
2022-11-05T15:42:51.952Z,83.00
2022-11-05T15:43:54.457Z,83.73
2022-11-05T15:44:56.908Z,83.57
2022-11-05T15:46:00.988Z,83.54
2022-11-05T15:47:03.332Z,83.31
2022-11-05T15:48:05.830Z,83.26
2022-11-05T15:49:08.265Z,83.18
2022-11-05T15:58:41.274Z,84.99
2022-11-05T15:59:46.678Z,85.08
2022-11-05T16:00:52.045Z,85.46
2022-11-05T16:10:20.500Z,87.59
2022-11-05T16:19:54.240Z,87.80
2022-11-05T16:29:29.616Z,89.13
2022-11-05T16:30:32.030Z,88.83
2022-11-05T16:40:04.408Z,89.05
2022-11-05T16:49:37.675Z,88.83
2022-11-05T16:50:40.077Z,88.85
2022-11-05T17:00:13.297Z,89.35
2022-11-05T17:09:47.275Z,90.00
2022-11-05T17:10:49.849Z,90.06
2022-11-05T17:11:52.464Z,89.97
2022-11-05T17:21:25.064Z,90.56
2022-11-05T17:31:00.026Z,91.18
2022-11-05T17:40:32.159Z,91.93
2022-11-05T17:50:06.014Z,91.38
2022-11-05T17:59:39.826Z,91.01
2022-11-05T18:00:42.722Z,91.03
2022-11-05T18:10:15.120Z,90.20
2022-11-05T18:19:49.009Z,90.43
2022-11-05T18:29:22.908Z,90.53
2022-11-05T18:38:56.532Z,90.85
2022-11-05T18:48:30.589Z,91.48
2022-11-05T18:58:04.696Z,91.31
2022-11-05T19:07:40.627Z,91.71
2022-11-05T19:17:16.500Z,91.63
2022-11-05T19:26:46.865Z,91.34
2022-11-05T19:27:49.386Z,91.40
2022-11-05T19:28:51.821Z,91.37
2022-11-05T19:29:55.793Z,91.19
2022-11-05T19:39:27.063Z,91.83
2022-11-05T19:49:00.891Z,92.15
2022-11-05T19:58:36.349Z,92.35
2022-11-05T20:08:08.228Z,92.50
2022-11-05T20:17:42.377Z,92.79
2022-11-05T20:27:16.328Z,93.93
2022-11-05T20:36:51.544Z,94.83
2022-11-05T20:37:54.440Z,95.15
2022-11-05T20:47:26.889Z,96.72
2022-11-05T20:57:00.950Z,97.40
2022-11-05T21:06:34.816Z,96.97
2022-11-05T21:16:15.485Z,96.49
2022-11-05T21:25:44.475Z,96.37
2022-11-05T21:35:15.929Z,95.89
2022-11-05T21:44:50.123Z,95.98
2022-11-05T21:54:25.403Z,96.04
2022-11-05T22:04:02.784Z,96.11
2022-11-05T22:13:32.648Z,96.45
2022-11-05T22:23:11.019Z,96.78
2022-11-05T22:32:40.015Z,96.99
2022-11-05T22:42:11.680Z,97.32
2022-11-05T22:51:44.892Z,97.50
2022-11-05T23:01:20.439Z,98.77
2022-11-05T23:10:51.378Z,99.26
2022-11-05T23:20:25.179Z,99.46
2022-11-05T23:30:00.302Z,100.00
2022-11-05T23:39:38.318Z,100.00
2022-11-05T23:49:07.102Z,100.00
2022-11-05T23:58:40.625Z,100.00
